aviador You're here: Registered users don't get ADS Register

SEE the Operating hours

LEVC Decoded Metar

VALENCIA in SPAIN
Report Time2014-04-23 07:30:00
UTC Time2014-04-23 08:01:58
Flight Rules vfr VFR
WindCalm
Visibility9999 m
Phenomena:N/A
Clouds:N/A
Expected CloudBase > 4,400 ft AGL from Temp-Dew spread
CeilingNone
Temp18°C (ISA +3)
Dew Point07°C (49% RH)
AAT17.3°C
QNH1020 hPa
Density Alt505 ft
Elevation203 ft
Report Wrong Elevation
Raw Report
LEVC 230730Z 00000KT CAVOK 18/07 Q1020 NOSIG=

Extra information for LEVC:More info

Metar Decoded Metar & Taf Metar Last 4 Metars Taf Meteogram F.Rules Stats Wind Profile Operation Airport Information Weather charts Add Link Nearby VenuesMetar ALERT Social comments Help

Webcam Valencia